Time;durP1;ratioP1;P1;durP2;ratioP2;P2;SDS_P1;SDS_P2;PMS_P1;PMS_P2;Temp;Humidity;BMP_temperature;BMP_pressure;BME280_temperature;BME280_humidity;BME280_pressure;Samples;Min_cycle;Max_cycle;Signal;HPM_P1;HPM_P2
2022/08/15 00:01:28;;;;;;;;;;;;;;;29.06;29.63;99298.78;5004376;28;6776;-74
2022/08/15 00:03:58;;;;;;;;;;;;;;;29.06;29.22;99304.06;5004758;28;6828;-74
2022/08/15 00:06:40;;;;;;;;;;;;;;;29.06;29.84;99306.69;4973392;28;6860;-74
2022/08/15 00:09:19;;;;;;;;;;;;;;;29.04;29.78;99301.53;5005155;28;6816;-74
2022/08/15 00:11:51;;;;;;;;;;;;;;;29.03;30.06;99314.75;4977319;28;7216;-74
2022/08/15 00:14:31;;;;;;;;;;;;;;;29.00;29.86;99304.38;4977004;28;7292;-74
2022/08/15 00:17:09;;;;;;;;;;;;;;;29.00;30.21;99315.75;4974584;28;6868;-74
2022/08/15 00:19:41;;;;;;;;;;;;;;;28.97;30.84;99318.53;5031815;28;7018;-74
2022/08/15 00:22:09;;;;;;;;;;;;;;;28.96;30.67;99308.94;5030486;28;6990;-74
2022/08/15 00:24:37;;;;;;;;;;;;;;;28.95;30.63;99305.41;4975007;28;6891;-74
2022/08/15 00:27:07;;;;;;;;;;;;;;;28.94;30.57;99314.25;4989565;28;7174;-74
2022/08/15 00:29:35;;;;;;;;;;;;;;;28.93;31.17;99325.72;4971581;28;6871;-74
2022/08/15 00:32:04;;;;;;;;;;;;;;;28.90;31.54;99317.97;4973511;28;7168;-74
2022/08/15 00:34:30;;;;;;;;;;;;;;;28.89;31.23;99325.94;4995681;28;7194;-74
2022/08/15 00:36:55;;;;;;;;;;;;;;;28.86;31.41;99326.09;4973230;28;6772;-74
2022/08/15 00:39:25;;;;;;;;;;;;;;;28.82;31.61;99328.84;5005566;28;6775;-74
2022/08/15 00:41:53;;;;;;;;;;;;;;;28.81;31.90;99329.75;5002806;28;6860;-74
2022/08/15 00:44:25;;;;;;;;;;;;;;;28.79;31.23;99336.03;4982339;28;7777;-74
2022/08/15 00:46:59;;;;;;;;;;;;;;;28.76;31.46;99337.00;4960689;28;6959;-74
2022/08/15 00:49:28;;;;;;;;;;;;;;;28.74;31.51;99338.00;5007555;28;6880;-73
2022/08/15 00:52:04;;;;;;;;;;;;;;;28.72;32.05;99326.69;4974702;28;7021;-73
2022/08/15 00:54:44;;;;;;;;;;;;;;;28.68;31.99;99334.72;4977675;28;6808;-73
2022/08/15 00:57:32;;;;;;;;;;;;;;;28.68;32.48;99326.81;4980025;28;7082;-73
2022/08/15 01:00:17;;;;;;;;;;;;;;;28.67;32.45;99333.00;4976206;28;6889;-73
2022/08/15 01:02:44;;;;;;;;;;;;;;;28.67;32.17;99321.63;4976258;28;11409;-73
2022/08/15 01:05:13;;;;;;;;;;;;;;;28.65;32.85;99320.84;5002888;28;7121;-73
2022/08/15 01:07:40;;;;;;;;;;;;;;;28.64;32.34;99322.59;4959037;28;7260;-74
2022/08/15 01:10:07;;;;;;;;;;;;;;;28.64;32.61;99322.59;5008481;28;6784;-73
2022/08/15 01:12:36;;;;;;;;;;;;;;;28.63;32.60;99326.16;4989428;28;6998;-74
2022/08/15 01:15:11;;;;;;;;;;;;;;;28.63;32.38;99328.78;4970235;28;6796;-74
2022/08/15 01:17:41;;;;;;;;;;;;;;;28.63;32.62;99326.16;4976408;28;6863;-74
2022/08/15 01:20:16;;;;;;;;;;;;;;;28.61;32.43;99321.88;5012288;28;7197;-73
2022/08/15 01:22:59;;;;;;;;;;;;;;;28.59;32.42;99324.59;4981101;28;6800;-74
2022/08/15 01:25:46;;;;;;;;;;;;;;;28.57;32.86;99318.50;4972448;28;6792;-74
2022/08/15 01:28:21;;;;;;;;;;;;;;;28.54;33.11;99316.88;5004804;28;7212;-74
2022/08/15 01:30:53;;;;;;;;;;;;;;;28.53;32.80;99322.22;5005851;28;7251;-74
2022/08/15 01:33:21;;;;;;;;;;;;;;;28.53;32.76;99324.84;4994498;28;7343;-74
2022/08/15 01:35:49;;;;;;;;;;;;;;;28.50;32.75;99317.94;4969139;28;7157;-73
2022/08/15 01:38:37;;;;;;;;;;;;;;;28.48;33.25;99325.06;4970115;28;6863;-73
2022/08/15 01:41:32;;;;;;;;;;;;;;;28.46;33.09;99323.41;4974678;28;7146;-74
2022/08/15 01:44:26;;;;;;;;;;;;;;;28.42;32.85;99323.53;4972621;28;7214;-73
2022/08/15 01:47:17;;;;;;;;;;;;;;;28.38;32.91;99319.31;5002773;28;6998;-73
2022/08/15 01:49:50;;;;;;;;;;;;;;;28.33;32.88;99318.69;4980231;28;6816;-74
2022/08/15 01:52:22;;;;;;;;;;;;;;;28.30;33.07;99318.81;5007776;28;7323;-73
2022/08/15 01:54:53;;;;;;;;;;;;;;;28.27;33.35;99325.06;4975606;28;7758;-74
2022/08/15 01:57:18;;;;;;;;;;;;;;;28.25;33.18;99326.03;5007508;28;6792;-74
2022/08/15 01:59:56;;;;;;;;;;;;;;;28.20;33.53;99328.00;5006558;28;8977;-73
2022/08/15 02:02:24;;;;;;;;;;;;;;;28.14;33.27;99329.97;4954832;28;7019;-73
2022/08/15 02:04:50;;;;;;;;;;;;;;;28.08;33.70;99311.78;4990813;28;7252;-74
2022/08/15 02:07:22;;;;;;;;;;;;;;;28.05;33.91;99317.19;5003652;28;6836;-74
2022/08/15 02:09:50;;;;;;;;;;;;;;;28.00;33.71;99316.50;5005405;28;6883;-73
2022/08/15 02:12:21;;;;;;;;;;;;;;;27.93;33.67;99322.97;4974064;28;7856;-73
2022/08/15 02:14:46;;;;;;;;;;;;;;;27.87;33.85;99316.19;4982211;28;6899;-73
2022/08/15 02:17:13;;;;;;;;;;;;;;;27.79;33.57;99313.00;5008578;28;7399;-74
2022/08/15 02:19:43;;;;;;;;;;;;;;;27.76;34.24;99315.75;4974533;28;7344;-74
2022/08/15 02:22:09;;;;;;;;;;;;;;;27.73;34.32;99314.13;5007403;28;6943;-74
2022/08/15 02:24:38;;;;;;;;;;;;;;;27.67;34.04;99316.97;4969402;28;6788;-73
2022/08/15 02:27:05;;;;;;;;;;;;;;;27.59;34.25;99307.63;4973010;28;6800;-73
2022/08/15 02:29:32;;;;;;;;;;;;;;;27.55;34.44;99313.94;5004288;28;6796;-73
2022/08/15 02:32:13;;;;;;;;;;;;;;;27.51;34.46;99320.19;5008443;28;7827;-73
2022/08/15 02:34:43;;;;;;;;;;;;;;;27.47;34.62;99315.97;4978576;28;7442;-73
2022/08/15 02:37:11;;;;;;;;;;;;;;;27.46;34.66;99316.88;5004949;28;7058;-73
2022/08/15 02:39:40;;;;;;;;;;;;;;;27.47;34.42;99326.50;4972244;28;6900;-73
2022/08/15 02:42:06;;;;;;;;;;;;;;;27.46;34.72;99327.41;4974723;28;6824;-73
2022/08/15 02:44:32;;;;;;;;;;;;;;;27.47;35.01;99331.75;5013425;28;7158;-73
2022/08/15 02:47:00;;;;;;;;;;;;;;;27.47;34.96;99329.13;4980877;28;7135;-73
2022/08/15 02:49:26;;;;;;;;;;;;;;;27.48;34.85;99325.56;4976309;28;7671;-73
2022/08/15 02:51:52;;;;;;;;;;;;;;;27.50;35.00;99328.16;5012795;28;6927;-74
2022/08/15 02:54:26;;;;;;;;;;;;;;;27.50;35.04;99322.91;5011789;28;6947;-74
2022/08/15 02:56:52;;;;;;;;;;;;;;;27.50;35.11;99313.22;4978903;28;6979;-74
2022/08/15 02:59:18;;;;;;;;;;;;;;;27.53;35.10;99309.59;5010928;28;7956;-74
2022/08/15 03:01:44;;;;;;;;;;;;;;;27.53;35.08;99317.50;5010459;28;6800;-74
2022/08/15 03:04:16;;;;;;;;;;;;;;;27.53;35.37;99309.59;4984318;28;6772;-74
2022/08/15 03:06:44;;;;;;;;;;;;;;;27.55;35.10;99311.31;5010419;28;6784;-74
2022/08/15 03:09:13;;;;;;;;;;;;;;;27.54;35.29;99311.31;5010209;28;6800;-74
2022/08/15 03:11:43;;;;;;;;;;;;;;;27.55;35.37;99303.41;5008687;28;7216;-74
2022/08/15 03:14:14;;;;;;;;;;;;;;;27.56;35.48;99312.13;5009361;28;7264;-74
2022/08/15 03:16:43;;;;;;;;;;;;;;;27.56;35.37;99310.38;4987700;28;6796;-74
2022/08/15 03:19:18;;;;;;;;;;;;;;;27.56;35.30;99313.00;4988394;28;6815;-73
2022/08/15 03:21:46;;;;;;;;;;;;;;;27.56;35.44;99317.41;4986695;28;7134;-73
2022/08/15 03:24:13;;;;;;;;;;;;;;;27.56;35.60;99318.28;5012897;28;6804;-74
2022/08/15 03:26:39;;;;;;;;;;;;;;;27.55;35.56;99316.56;5015765;28;6788;-74
2022/08/15 03:29:06;;;;;;;;;;;;;;;27.56;35.76;99320.03;5007283;28;7203;-74
2022/08/15 03:31:35;;;;;;;;;;;;;;;27.54;35.51;99314.84;5013265;28;6871;-73
2022/08/15 03:34:01;;;;;;;;;;;;;;;27.56;35.68;99318.28;5014965;28;7166;-73
2022/08/15 03:36:27;;;;;;;;;;;;;;;27.55;35.72;99306.03;5015871;28;6788;-74
2022/08/15 03:38:53;;;;;;;;;;;;;;;27.54;35.78;99314.84;5027683;28;7024;-74
2022/08/15 03:41:20;;;;;;;;;;;;;;;27.53;35.63;99307.84;4981799;28;6988;-73
2022/08/15 03:43:46;;;;;;;;;;;;;;;27.53;35.75;99310.47;5007383;28;6776;-74
2022/08/15 03:46:19;;;;;;;;;;;;;;;27.52;35.86;99308.72;5005996;28;6788;-74
2022/08/15 03:48:49;;;;;;;;;;;;;;;27.53;36.08;99306.97;5004338;28;6792;-74
2022/08/15 03:51:18;;;;;;;;;;;;;;;27.51;35.79;99308.81;5002937;28;6816;-73
2022/08/15 03:53:49;;;;;;;;;;;;;;;27.49;35.92;99324.66;5006981;28;6955;-73
2022/08/15 03:56:24;;;;;;;;;;;;;;;27.47;36.02;99313.34;4974108;28;7061;-74
2022/08/15 03:58:51;;;;;;;;;;;;;;;27.47;35.89;99307.22;5008520;28;6812;-74
2022/08/15 04:01:24;;;;;;;;;;;;;;;27.45;35.86;99320.44;5000695;28;7209;-74
2022/08/15 04:03:51;;;;;;;;;;;;;;;27.46;36.09;99319.53;4990079;28;6864;-75
2022/08/15 04:06:22;;;;;;;;;;;;;;;27.45;35.95;99329.19;5000731;28;6816;-74
2022/08/15 04:08:50;;;;;;;;;;;;;;;27.45;36.18;99312.56;5003485;28;6807;-74
2022/08/15 04:11:20;;;;;;;;;;;;;;;27.44;35.87;99313.47;4996102;28;8004;-74
2022/08/15 04:13:47;;;;;;;;;;;;;;;27.44;36.12;99302.94;4973367;28;6982;-74
2022/08/15 04:16:14;;;;;;;;;;;;;;;27.44;36.32;99295.06;4976858;28;7130;-74
2022/08/15 04:18:40;;;;;;;;;;;;;;;27.43;36.48;99301.25;4979245;28;7213;-74
2022/08/15 04:21:12;;;;;;;;;;;;;;;27.42;36.41;99305.63;4980746;28;6776;-74
2022/08/15 04:23:43;;;;;;;;;;;;;;;27.41;36.34;99303.03;4984716;28;6828;-74
2022/08/15 04:26:10;;;;;;;;;;;;;;;27.39;36.17;99308.41;4982875;28;6860;-74
2022/08/15 04:28:36;;;;;;;;;;;;;;;27.39;36.31;99315.41;4978952;28;6800;-73
2022/08/15 04:31:12;;;;;;;;;;;;;;;27.37;36.84;99312.00;4983126;28;6791;-73
2022/08/15 04:33:38;;;;;;;;;;;;;;;27.36;36.83;99310.28;5011264;28;6819;-74
2022/08/15 04:36:11;;;;;;;;;;;;;;;27.32;37.02;99320.06;5012254;28;7020;-73
2022/08/15 04:38:39;;;;;;;;;;;;;;;27.30;37.40;99316.63;4982144;28;7976;-73
2022/08/15 04:41:06;;;;;;;;;;;;;;;27.27;37.20;99311.47;4978494;28;6780;-74
2022/08/15 04:43:34;;;;;;;;;;;;;;;27.26;37.13;99315.03;5012547;28;6943;-73
2022/08/15 04:46:01;;;;;;;;;;;;;;;27.25;37.23;99323.84;4984399;28;7147;-73
2022/08/15 04:48:27;;;;;;;;;;;;;;;27.23;37.39;99331.78;5009583;28;6982;-73
2022/08/15 04:50:57;;;;;;;;;;;;;;;27.23;37.39;99333.56;5011063;28;7093;-73
2022/08/15 04:53:26;;;;;;;;;;;;;;;27.22;37.36;99337.13;5011014;28;6935;-73
2022/08/15 04:55:53;;;;;;;;;;;;;;;27.23;37.71;99347.56;4998183;28;7149;-73
2022/08/15 04:58:19;;;;;;;;;;;;;;;27.21;37.60;99338.03;4979116;28;6856;-73
2022/08/15 05:00:57;;;;;;;;;;;;;;;27.21;37.25;99338.03;5009608;28;7967;-73
2022/08/15 05:03:24;;;;;;;;;;;;;;;27.21;37.71;99343.28;4993911;28;6899;-73
2022/08/15 05:05:58;;;;;;;;;;;;;;;27.21;37.63;99340.66;5016057;28;6780;-73
2022/08/15 05:08:27;;;;;;;;;;;;;;;27.21;37.74;99338.03;4995731;28;7205;-73
2022/08/15 05:10:58;;;;;;;;;;;;;;;27.22;38.06;99337.94;4980233;28;6792;-73
2022/08/15 05:13:29;;;;;;;;;;;;;;;27.21;37.88;99333.63;5014508;28;7038;-73
2022/08/15 05:15:58;;;;;;;;;;;;;;;27.21;37.92;99335.41;4979272;28;6800;-73
2022/08/15 05:18:26;;;;;;;;;;;;;;;27.21;37.93;99341.50;4984426;28;6962;-73
2022/08/15 05:20:52;;;;;;;;;;;;;;;27.21;38.20;99349.38;5005476;28;6851;-73
2022/08/15 05:23:21;;;;;;;;;;;;;;;27.21;38.31;99349.38;5012033;28;7022;-73
2022/08/15 05:25:53;;;;;;;;;;;;;;;27.21;38.38;99346.75;5001500;28;6953;-73
2022/08/15 05:28:20;;;;;;;;;;;;;;;27.22;38.34;99355.53;5012075;28;6971;-73
2022/08/15 05:30:46;;;;;;;;;;;;;;;27.21;38.43;99354.66;4977534;28;6894;-74
2022/08/15 05:33:19;;;;;;;;;;;;;;;27.21;38.34;99354.66;5010462;28;6788;-74
2022/08/15 05:35:52;;;;;;;;;;;;;;;27.22;38.74;99360.78;4975229;28;7457;-73
2022/08/15 05:38:40;;;;;;;;;;;;;;;27.19;38.71;99356.50;5001672;28;7043;-73
2022/08/15 05:41:27;;;;;;;;;;;;;;;27.20;38.68;99354.72;5007949;28;6812;-73
2022/08/15 05:44:19;;;;;;;;;;;;;;;27.22;38.81;99358.16;4982173;28;6868;-73
2022/08/15 05:47:05;;;;;;;;;;;;;;;27.22;39.11;99356.34;4981332;28;6887;-73
2022/08/15 05:49:59;;;;;;;;;;;;;;;27.20;39.33;99358.19;5011124;28;6819;-73
2022/08/15 05:53:08;;;;;;;;;;;;;;;27.17;39.65;99360.97;4975404;28;7284;-74
2022/08/15 05:56:04;;;;;;;;;;;;;;;27.16;39.70;99351.34;5001367;28;7222;-73
2022/08/15 05:58:42;;;;;;;;;;;;;;;27.16;40.00;99352.19;4998016;28;8432;-73
2022/08/15 06:01:23;;;;;;;;;;;;;;;27.17;39.95;99361.78;4999074;28;6860;-73
2022/08/15 06:04:11;;;;;;;;;;;;;;;27.20;40.32;99354.72;5008381;28;6950;-73
2022/08/15 06:06:43;;;;;;;;;;;;;;;27.21;40.46;99370.44;5009439;28;6800;-73
2022/08/15 06:09:57;;;;;;;;;;;;;;;27.25;40.35;99355.41;4982410;28;7291;-73
2022/08/15 06:12:47;;;;;;;;;;;;;;;27.26;40.55;99355.34;4980972;28;7258;-74
2022/08/15 06:15:30;;;;;;;;;;;;;;;27.28;40.67;99355.28;5010136;28;6804;-74
2022/08/15 06:18:02;;;;;;;;;;;;;;;27.33;40.76;99360.34;5010672;28;6828;-73
2022/08/15 06:20:53;;;;;;;;;;;;;;;27.34;40.47;99370.00;4981519;28;6808;-73
2022/08/15 06:23:57;;;;;;;;;;;;;;;27.31;40.66;99363.91;4972701;28;6832;-73
2022/08/15 06:26:51;;;;;;;;;;;;;;;27.31;40.58;99366.53;5008510;28;7255;-73
2022/08/15 06:29:52;;;;;;;;;;;;;;;27.31;40.67;99377.06;4978800;28;8111;-73
2022/08/15 06:32:36;;;;;;;;;;;;;;;27.34;41.02;99380.50;5006596;28;6832;-73
2022/08/15 06:35:30;;;;;;;;;;;;;;;27.37;40.92;99383.00;4973564;28;6808;-73
2022/08/15 06:38:27;;;;;;;;;;;;;;;27.39;41.13;99373.28;4981797;28;6792;-73
2022/08/15 06:41:39;;;;;;;;;;;;;;;27.41;41.22;99374.06;5005472;28;7138;-73
2022/08/15 06:44:07;;;;;;;;;;;;;;;27.38;41.00;99377.69;4977414;28;7094;-73
2022/08/15 06:46:33;;;;;;;;;;;;;;;27.36;41.07;99376.88;5009894;28;6796;-73
2022/08/15 06:49:07;;;;;;;;;;;;;;;27.35;41.01;99376.97;5009900;28;7237;-73
2022/08/15 06:51:38;;;;;;;;;;;;;;;27.30;40.84;99379.75;4984119;28;6800;-73
2022/08/15 06:54:23;;;;;;;;;;;;;;;27.26;41.40;99379.03;4978822;28;6872;-73
2022/08/15 06:56:56;;;;;;;;;;;;;;;27.21;41.76;99367.81;4982191;28;7888;-73
2022/08/15 06:59:48;;;;;;;;;;;;;;;27.03;42.51;99370.19;5016532;28;6999;-73
2022/08/15 07:02:34;;;;;;;;;;;;;;;26.81;42.92;99378.00;4967578;28;7837;-73
2022/08/15 07:05:26;;;;;;;;;;;;;;;26.54;43.58;99375.41;4970450;28;6796;-73
2022/08/15 07:08:08;;;;;;;;;;;;;;;26.29;44.14;99373.63;5002560;28;7110;-72
2022/08/15 07:10:48;;;;;;;;;;;;;;;26.14;45.12;99374.94;5000276;28;6959;-72
2022/08/15 07:13:49;;;;;;;;;;;;;;;26.00;45.97;99357.03;4970605;28;7273;-72
2022/08/15 07:16:43;;;;;;;;;;;;;;;25.91;46.30;99362.56;4997113;28;6792;-73
2022/08/15 07:19:10;;;;;;;;;;;;;;;25.83;46.95;99362.84;4962806;28;6993;-73
2022/08/15 07:21:37;;;;;;;;;;;;;;;25.73;47.67;99364.03;4965978;28;7058;-73
2022/08/15 07:24:16;;;;;;;;;;;;;;;25.61;47.52;99363.50;4999900;28;6780;-73
2022/08/15 07:27:03;;;;;;;;;;;;;;;25.51;48.74;99357.69;4996998;28;6788;-73
2022/08/15 07:29:43;;;;;;;;;;;;;;;25.45;48.77;99356.97;4969110;28;6802;-73
2022/08/15 07:32:22;;;;;;;;;;;;;;;25.46;49.06;99362.19;4978064;28;6995;-73
2022/08/15 07:35:05;;;;;;;;;;;;;;;25.49;49.26;99358.59;4995377;28;6983;-73
2022/08/15 07:37:37;;;;;;;;;;;;;;;25.56;49.40;99359.31;5015447;28;8238;-73
2022/08/15 07:40:38;;;;;;;;;;;;;;;25.61;49.40;99363.50;4985798;28;6799;-73
2022/08/15 07:43:26;;;;;;;;;;;;;;;25.68;49.89;99358.06;4985190;28;6824;-73
2022/08/15 07:46:10;;;;;;;;;;;;;;;25.77;49.31;99352.53;4984215;28;6961;-73
2022/08/15 07:48:38;;;;;;;;;;;;;;;25.91;49.58;99359.94;4982494;28;6804;-73
2022/08/15 07:51:22;;;;;;;;;;;;;;;26.07;49.30;99360.31;4981942;28;7788;-74
2022/08/15 07:53:59;;;;;;;;;;;;;;;26.24;49.37;99366.81;5012339;28;7000;-73
2022/08/15 07:56:30;;;;;;;;;;;;;;;26.37;48.89;99352.38;5012750;28;6792;-73
2022/08/15 07:59:24;;;;;;;;;;;;;;;26.51;48.41;99359.78;5014103;28;6871;-72
2022/08/15 08:02:01;;;;;;;;;;;;;;;26.61;47.93;99365.53;4979557;28;7277;-72
2022/08/15 08:04:29;;;;;;;;;;;;;;;26.67;47.98;99367.97;5009902;28;6795;-72
2022/08/15 08:07:14;;;;;;;;;;;;;;;26.72;47.50;99368.66;4998805;28;7061;-72
2022/08/15 08:09:46;;;;;;;;;;;;;;;26.79;47.47;99371.06;4975722;28;6812;-73
2022/08/15 08:12:53;;;;;;;;;;;;;;;26.88;47.43;99374.25;4974929;28;6900;-73
2022/08/15 08:15:48;;;;;;;;;;;;;;;27.00;47.11;99374.72;4982307;28;7170;-73
2022/08/15 08:18:42;;;;;;;;;;;;;;;27.09;46.96;99381.41;5011145;28;7105;-73
2022/08/15 08:21:14;;;;;;;;;;;;;;;27.17;46.68;99389.88;4983143;28;6796;-73
2022/08/15 08:23:52;;;;;;;;;;;;;;;27.24;46.42;99398.41;4995868;28;7102;-73
2022/08/15 08:27:12;;;;;;;;;;;;;;;27.29;46.27;99397.31;4978953;28;6975;-73
2022/08/15 08:30:14;;;;;;;;;;;;;;;27.35;46.19;99406.72;4989230;28;6980;-73
2022/08/15 08:33:10;;;;;;;;;;;;;;;27.38;45.68;99411.91;5013852;28;11845;-73
2022/08/15 08:35:53;;;;;;;;;;;;;;;27.37;45.58;99407.53;4981018;28;7682;-73
2022/08/15 08:38:35;;;;;;;;;;;;;;;27.35;46.04;99413.78;4990697;28;7911;-73
2022/08/15 08:41:35;;;;;;;;;;;;;;;27.32;46.19;99412.13;4999718;28;7204;-73
2022/08/15 08:44:59;;;;;;;;;;;;;;;27.29;46.28;99410.47;5002483;28;7002;-73
2022/08/15 08:47:48;;;;;;;;;;;;;;;27.32;46.20;99406.84;4973365;28;7632;-73
2022/08/15 08:50:30;;;;;;;;;;;;;;;27.41;46.27;99410.91;4984400;28;6964;-73
2022/08/15 08:53:22;;;;;;;;;;;;;;;27.51;46.06;99414.91;5011390;28;7019;-73
2022/08/15 08:55:59;;;;;;;;;;;;;;;27.64;45.99;99410.06;5013646;28;6812;-73
2022/08/15 08:58:36;;;;;;;;;;;;;;;27.75;45.87;99412.28;4981230;28;6820;-73
2022/08/15 09:01:07;;;;;;;;;;;;;;;27.84;45.18;99413.69;4982087;28;6900;-73
2022/08/15 09:03:46;;;;;;;;;;;;;;;27.88;44.83;99414.41;5012263;28;6835;-73
2022/08/15 09:06:23;;;;;;;;;;;;;;;27.92;44.78;99421.31;4974430;28;7782;-73
2022/08/15 09:09:06;;;;;;;;;;;;;;;27.91;44.70;99412.53;5010354;28;7251;-73
2022/08/15 09:11:44;;;;;;;;;;;;;;;27.91;44.84;99412.53;5009481;28;6977;-73
2022/08/15 09:14:22;;;;;;;;;;;;;;;27.94;44.82;99416.81;4977565;28;6816;-73
2022/08/15 09:16:52;;;;;;;;;;;;;;;27.99;44.66;99425.38;5008406;28;7034;-73
2022/08/15 09:19:39;;;;;;;;;;;;;;;28.08;44.64;99419.75;4990998;28;6989;-73
2022/08/15 09:22:05;;;;;;;;;;;;;;;28.20;44.63;99414.91;5011159;28;6816;-73
2022/08/15 09:24:30;;;;;;;;;;;;;;;28.33;43.87;99425.81;4978897;28;6969;-73
2022/08/15 09:27:26;;;;;;;;;;;;;;;28.39;43.88;99423.81;4982818;28;7373;-73
2022/08/15 09:30:08;;;;;;;;;;;;;;;28.49;43.66;99424.25;4979963;28;7963;-73
2022/08/15 09:33:13;;;;;;;;;;;;;;;28.59;43.49;99431.78;4998038;28;7826;-73
2022/08/15 09:35:59;;;;;;;;;;;;;;;28.66;43.01;99426.16;4981156;28;7073;-73
2022/08/15 09:38:58;;;;;;;;;;;;;;;28.76;43.62;99425.78;4978725;28;7161;-73
2022/08/15 09:41:55;;;;;;;;;;;;;;;28.83;42.93;99422.00;4975210;28;7292;-73
2022/08/15 09:44:26;;;;;;;;;;;;;;;28.92;43.57;99418.06;4977972;28;7362;-73
2022/08/15 09:47:19;;;;;;;;;;;;;;;29.06;42.41;99425.38;4974734;28;6883;-73
2022/08/15 09:50:25;;;;;;;;;;;;;;;29.25;42.21;99418.34;5007729;28;6835;-73
2022/08/15 09:53:14;;;;;;;;;;;;;;;29.47;42.18;99416.53;4977077;28;6808;-73
2022/08/15 09:55:48;;;;;;;;;;;;;;;29.66;42.53;99406.84;4988736;28;7011;-73
2022/08/15 09:58:28;;;;;;;;;;;;;;;29.88;42.20;99410.25;5011126;28;6985;-73
2022/08/15 10:01:12;;;;;;;;;;;;;;;30.03;41.34;99409.47;5010123;28;7134;-73
2022/08/15 10:03:43;;;;;;;;;;;;;;;30.11;40.78;99413.56;4977302;28;6784;-74
2022/08/15 10:06:35;;;;;;;;;;;;;;;30.16;40.36;99420.34;4980743;28;6788;-73
2022/08/15 10:09:35;;;;;;;;;;;;;;;30.19;40.92;99412.28;4973879;28;7244;-73
2022/08/15 10:12:21;;;;;;;;;;;;;;;30.21;40.78;99418.34;4978439;28;7194;-73
2022/08/15 10:14:52;;;;;;;;;;;;;;;30.30;40.46;99419.66;4996258;28;7889;-73
2022/08/15 10:17:33;;;;;;;;;;;;;;;30.40;40.64;99411.25;4978498;28;6784;-73
2022/08/15 10:20:29;;;;;;;;;;;;;;;30.54;40.36;99416.72;4977683;28;6831;-73
2022/08/15 10:23:00;;;;;;;;;;;;;;;30.67;39.98;99419.63;4969609;28;6975;-74
2022/08/15 10:25:36;;;;;;;;;;;;;;;30.70;39.71;99419.44;4974656;28;7316;-73
2022/08/15 10:28:11;;;;;;;;;;;;;;;30.68;39.92;99426.63;4981912;28;7146;-73
2022/08/15 10:30:38;;;;;;;;;;;;;;;30.63;39.48;99431.25;4979984;28;7008;-73
2022/08/15 10:33:32;;;;;;;;;;;;;;;30.57;39.06;99440.34;4975555;28;7182;-73
2022/08/15 10:36:22;;;;;;;;;;;;;;;30.52;39.92;99437.09;4978707;28;6812;-73
2022/08/15 10:39:44;;;;;;;;;;;;;;;30.50;39.58;99433.66;4976791;28;7210;-73
2022/08/15 10:42:37;;;;;;;;;;;;;;;30.44;39.51;99441.91;4975603;28;7439;-73
2022/08/15 10:45:07;;;;;;;;;;;;;;;30.42;39.74;99435.81;5004509;28;7264;-73
2022/08/15 10:48:06;;;;;;;;;;;;;;;30.42;38.96;99447.25;4979669;28;7196;-73
2022/08/15 10:50:45;;;;;;;;;;;;;;;30.39;38.97;99443.91;4980847;28;7065;-73
2022/08/15 10:53:43;;;;;;;;;;;;;;;30.41;39.59;99449.97;5007107;28;6861;-73
2022/08/15 10:56:18;;;;;;;;;;;;;;;30.45;39.48;99451.53;5010046;28;6803;-73
2022/08/15 10:58:46;;;;;;;;;;;;;;;30.53;39.39;99448.50;4979557;28;6816;-73
2022/08/15 11:01:26;;;;;;;;;;;;;;;30.60;38.71;99456.03;4981573;28;7784;-73
2022/08/15 11:04:07;;;;;;;;;;;;;;;30.61;38.96;99460.41;5008589;28;6795;-73
2022/08/15 11:06:42;;;;;;;;;;;;;;;30.62;38.88;99463.91;5022949;28;7278;-73
2022/08/15 11:09:14;;;;;;;;;;;;;;;30.60;38.71;99461.31;4976911;28;6800;-73
2022/08/15 11:11:52;;;;;;;;;;;;;;;30.55;38.70;99463.34;5008346;28;6883;-73
2022/08/15 11:14:28;;;;;;;;;;;;;;;30.53;39.21;99467.88;5013196;28;7036;-73
2022/08/15 11:16:58;;;;;;;;;;;;;;;30.45;39.02;99460.31;4993168;28;8534;-73
2022/08/15 11:19:38;;;;;;;;;;;;;;;30.38;38.67;99474.78;5008075;28;7305;-73
2022/08/15 11:22:17;;;;;;;;;;;;;;;30.32;38.95;99467.16;5008136;28;6820;-73
2022/08/15 11:24:57;;;;;;;;;;;;;;;30.30;38.51;99461.94;4995803;28;7022;-73
2022/08/15 11:27:26;;;;;;;;;;;;;;;30.26;38.27;99465.66;5004041;28;6974;-73
2022/08/15 11:29:57;;;;;;;;;;;;;;;30.23;38.93;99463.19;4975923;28;7054;-74
2022/08/15 11:32:37;;;;;;;;;;;;;;;30.16;38.50;99469.69;4975532;28;7523;-73
2022/08/15 11:35:19;;;;;;;;;;;;;;;30.04;38.19;99460.53;4960461;28;7307;-73
2022/08/15 11:37:45;;;;;;;;;;;;;;;29.92;38.51;99464.59;5011424;28;6852;-73
2022/08/15 11:40:36;;;;;;;;;;;;;;;29.77;39.21;99474.97;5012547;28;7064;-73
2022/08/15 11:43:06;;;;;;;;;;;;;;;29.67;39.30;99473.69;5005142;28;6931;-73
2022/08/15 11:45:42;;;;;;;;;;;;;;;29.54;39.17;99476.03;4977651;28;6811;-73
2022/08/15 11:48:19;;;;;;;;;;;;;;;29.37;39.97;99471.50;5017878;28;6993;-73
2022/08/15 11:51:06;;;;;;;;;;;;;;;29.16;40.76;99475.97;5011356;28;6827;-73
2022/08/15 11:54:02;;;;;;;;;;;;;;;28.92;41.91;99476.97;5014783;28;6961;-73
2022/08/15 11:56:56;;;;;;;;;;;;;;;28.81;44.14;99464.19;4995759;28;6798;-73
2022/08/15 11:59:55;;;;;;;;;;;;;;;28.95;44.00;99468.06;4979189;28;6997;-73
2022/08/15 12:02:21;;;;;;;;;;;;;;;29.21;44.09;99455.50;4995459;28;9730;-73
2022/08/15 12:04:49;;;;;;;;;;;;;;;29.51;44.07;99457.72;4983776;28;6768;-73
2022/08/15 12:07:30;;;;;;;;;;;;;;;29.92;43.68;99454.03;4964324;28;7282;-73
2022/08/15 12:10:06;;;;;;;;;;;;;;;30.39;42.90;99441.25;4983633;28;9567;-74
2022/08/15 12:12:37;;;;;;;;;;;;;;;30.99;41.38;99443.53;5005917;28;7948;-74
2022/08/15 12:15:40;;;;;;;;;;;;;;;31.61;39.90;99434.09;5006090;28;7218;-73
2022/08/15 12:18:20;;;;;;;;;;;;;;;32.13;38.24;99435.63;4985659;28;7272;-73
2022/08/15 12:21:07;;;;;;;;;;;;;;;32.44;36.56;99435.66;4982190;28;6788;-73
2022/08/15 12:23:51;;;;;;;;;;;;;;;32.59;35.85;99447.16;5004086;28;7024;-73
2022/08/15 12:26:20;;;;;;;;;;;;;;;32.70;35.93;99441.22;5011235;28;7156;-73
2022/08/15 12:28:47;;;;;;;;;;;;;;;32.88;35.90;99447.19;4985382;28;6856;-74
2022/08/15 12:31:36;;;;;;;;;;;;;;;33.15;35.81;99443.00;5015638;28;6792;-73
2022/08/15 12:34:14;;;;;;;;;;;;;;;33.50;34.45;99437.28;4978648;28;6846;-73
2022/08/15 12:36:44;;;;;;;;;;;;;;;33.68;33.44;99437.94;4982073;28;6800;-73
2022/08/15 12:39:13;;;;;;;;;;;;;;;33.84;33.16;99435.13;4995886;28;7067;-74
2022/08/15 12:41:45;;;;;;;;;;;;;;;34.14;33.76;99431.44;5010932;28;7247;-73
2022/08/15 12:44:29;;;;;;;;;;;;;;;34.76;32.60;99429.97;5003168;28;7213;-74
2022/08/15 12:46:57;;;;;;;;;;;;;;;35.53;32.07;99422.88;5003494;28;7117;-74
2022/08/15 12:49:23;;;;;;;;;;;;;;;36.14;29.86;99424.72;4987711;28;6994;-73
2022/08/15 12:51:48;;;;;;;;;;;;;;;36.53;28.98;99415.63;4994182;28;7975;-73
2022/08/15 12:54:15;;;;;;;;;;;;;;;36.84;28.71;99415.91;4978775;28;6788;-73
2022/08/15 12:56:43;;;;;;;;;;;;;;;37.28;28.59;99412.53;5009912;28;6796;-73
2022/08/15 12:59:09;;;;;;;;;;;;;;;37.96;28.12;99409.72;5009042;28;7047;-74
2022/08/15 13:01:38;;;;;;;;;;;;;;;38.76;27.26;99406.66;5007842;28;6792;-74
2022/08/15 13:04:08;;;;;;;;;;;;;;;39.32;25.83;99409.84;4998785;28;7065;-74
2022/08/15 13:06:52;;;;;;;;;;;;;;;39.50;25.00;99414.56;4978242;28;6800;-74
2022/08/15 13:09:21;;;;;;;;;;;;;;;39.26;25.18;99407.72;5010074;28;7896;-74
2022/08/15 13:11:47;;;;;;;;;;;;;;;38.98;25.33;99415.50;4974399;28;7261;-74
2022/08/15 13:14:16;;;;;;;;;;;;;;;38.58;25.03;99422.44;5010906;28;7252;-73
2022/08/15 13:16:48;;;;;;;;;;;;;;;38.11;25.18;99425.50;4976798;28;7135;-73
2022/08/15 13:19:19;;;;;;;;;;;;;;;37.57;25.59;99431.59;5012827;28;6808;-73
2022/08/15 13:24:30;;;;;;;;;;;;;;;36.70;26.66;99427.66;5007200;28;6878;-74
2022/08/15 13:26:58;;;;;;;;;;;;;;;36.34;26.98;99430.34;5014380;28;6946;-74
2022/08/15 13:29:24;;;;;;;;;;;;;;;35.92;27.14;99433.44;5004236;28;7164;-73
2022/08/15 13:31:50;;;;;;;;;;;;;;;35.47;27.52;99431.31;4992960;28;6824;-73
2022/08/15 13:34:18;;;;;;;;;;;;;;;35.04;27.69;99428.06;5012133;28;7368;-73
2022/08/15 13:36:44;;;;;;;;;;;;;;;34.66;28.18;99423.59;5010900;28;8679;-73
2022/08/15 13:39:33;;;;;;;;;;;;;;;34.30;28.55;99422.47;5014441;28;6936;-73
2022/08/15 13:41:59;;;;;;;;;;;;;;;33.97;28.88;99431.66;4981871;28;7246;-74
2022/08/15 13:44:25;;;;;;;;;;;;;;;33.66;29.41;99421.25;5011074;28;6788;-73
2022/08/15 13:46:53;;;;;;;;;;;;;;;33.44;29.69;99432.34;4991131;28;7217;-73
2022/08/15 13:49:21;;;;;;;;;;;;;;;33.22;30.00;99429.25;5005576;28;6919;-73
2022/08/15 13:51:53;;;;;;;;;;;;;;;33.01;30.30;99431.41;4979351;28;7134;-73